createdAt,value
2023-07-16T00:00:13.068Z,99.99
2023-07-16T00:01:13.056Z,99.99
2023-07-16T00:02:13.191Z,99.99
2023-07-16T00:03:13.095Z,99.99
2023-07-16T00:04:13.065Z,99.99
2023-07-16T00:05:13.008Z,99.99
2023-07-16T00:06:13.101Z,99.99
2023-07-16T00:07:12.984Z,99.99
2023-07-16T00:08:13.005Z,99.99
2023-07-16T00:09:12.958Z,99.99
2023-07-16T00:10:12.973Z,99.99
2023-07-16T00:11:12.944Z,99.99
2023-07-16T00:12:12.942Z,99.99
2023-07-16T00:13:12.930Z,99.99
2023-07-16T00:14:12.896Z,99.99
2023-07-16T00:15:12.890Z,99.99
2023-07-16T00:16:13.006Z,99.99
2023-07-16T00:17:12.868Z,99.99
2023-07-16T00:18:12.945Z,99.99
2023-07-16T00:19:12.856Z,99.99
2023-07-16T00:20:12.825Z,99.99
2023-07-16T00:21:12.813Z,99.99
2023-07-16T00:22:12.814Z,99.99
2023-07-16T00:23:12.908Z,99.99
2023-07-16T00:24:12.800Z,99.99
2023-07-16T00:25:12.798Z,99.99
2023-07-16T00:26:12.776Z,99.99
2023-07-16T00:27:12.755Z,99.99
2023-07-16T00:28:12.741Z,99.99
2023-07-16T00:29:12.712Z,99.99
2023-07-16T00:30:12.723Z,99.99
2023-07-16T00:31:12.778Z,99.99
2023-07-16T00:32:12.685Z,99.99
2023-07-16T00:33:12.670Z,99.99
2023-07-16T00:34:12.658Z,99.99
2023-07-16T00:35:12.647Z,99.99
2023-07-16T00:36:12.695Z,99.99
2023-07-16T00:37:12.647Z,99.99
2023-07-16T00:38:12.608Z,99.99
2023-07-16T00:39:12.600Z,99.99
2023-07-16T00:40:12.620Z,99.99
2023-07-16T00:41:12.568Z,99.99
2023-07-16T00:42:12.565Z,99.99
2023-07-16T00:43:12.546Z,99.99
2023-07-16T00:44:12.549Z,99.99
2023-07-16T00:45:12.525Z,99.99
2023-07-16T00:46:12.568Z,99.99
2023-07-16T00:47:12.494Z,99.99
2023-07-16T00:48:12.495Z,99.99
2023-07-16T00:49:12.479Z,99.99
2023-07-16T00:50:12.459Z,99.99
2023-07-16T00:51:12.442Z,99.99
2023-07-16T00:52:12.435Z,99.99
2023-07-16T00:53:12.425Z,99.99
2023-07-16T00:54:12.433Z,99.99
2023-07-16T00:55:12.415Z,99.99
2023-07-16T00:56:12.422Z,99.99
2023-07-16T00:57:12.386Z,99.99
2023-07-16T00:58:12.354Z,99.99
2023-07-16T00:59:12.353Z,99.99
2023-07-16T01:00:12.361Z,99.99
2023-07-16T01:01:12.358Z,99.99
2023-07-16T01:02:12.323Z,99.99
2023-07-16T01:03:12.356Z,99.99
2023-07-16T01:04:12.345Z,99.99
2023-07-16T01:05:12.388Z,99.99
2023-07-16T01:06:12.291Z,99.99
2023-07-16T01:07:12.302Z,99.99
2023-07-16T01:08:12.239Z,99.99
2023-07-16T01:09:12.228Z,99.99
2023-07-16T01:10:12.208Z,99.99
2023-07-16T01:11:12.211Z,99.99
2023-07-16T01:12:12.224Z,99.99
2023-07-16T01:13:12.175Z,99.99
2023-07-16T01:14:12.171Z,99.99
2023-07-16T01:15:12.150Z,99.99
2023-07-16T01:16:12.197Z,99.99
2023-07-16T01:17:12.132Z,99.99
2023-07-16T01:18:12.173Z,99.99
2023-07-16T01:19:12.110Z,99.99
2023-07-16T01:20:12.106Z,99.99
2023-07-16T01:21:12.079Z,99.99
2023-07-16T01:22:13.087Z,99.99
2023-07-16T01:23:12.064Z,99.99
2023-07-16T01:24:12.049Z,99.99
2023-07-16T01:25:12.034Z,99.99
2023-07-16T01:26:12.015Z,99.99
2023-07-16T01:27:12.006Z,99.99
2023-07-16T01:28:12.022Z,99.99
2023-07-16T01:29:11.990Z,99.99
2023-07-16T01:30:11.969Z,99.99
2023-07-16T01:31:12.015Z,99.99
2023-07-16T01:32:11.952Z,99.99
2023-07-16T01:33:11.969Z,99.99
2023-07-16T01:34:11.964Z,99.99
2023-07-16T01:35:11.921Z,99.99
2023-07-16T01:36:11.899Z,99.99
2023-07-16T01:37:11.876Z,99.99
2023-07-16T01:38:11.863Z,99.99
2023-07-16T01:39:11.855Z,99.99
2023-07-16T01:40:11.866Z,99.99
2023-07-16T01:41:11.830Z,99.99
2023-07-16T01:42:11.837Z,99.99
2023-07-16T01:43:11.813Z,99.99
2023-07-16T01:44:11.826Z,99.99
2023-07-16T01:45:11.802Z,99.99
2023-07-16T01:46:11.836Z,99.99
2023-07-16T01:47:11.765Z,99.99
2023-07-16T01:48:11.764Z,99.99
2023-07-16T01:49:11.740Z,99.99
2023-07-16T01:50:11.721Z,99.99
2023-07-16T01:51:11.711Z,99.99
2023-07-16T01:52:11.694Z,99.99
2023-07-16T01:53:11.683Z,99.99
2023-07-16T01:54:11.668Z,99.99
2023-07-16T01:55:11.662Z,99.99
2023-07-16T01:56:11.648Z,99.99
2023-07-16T01:57:11.645Z,99.99
2023-07-16T01:58:11.625Z,99.99
2023-07-16T01:59:11.611Z,99.99
2023-07-16T02:00:11.633Z,99.99
2023-07-16T02:01:11.636Z,99.99
2023-07-16T02:02:11.591Z,99.99
2023-07-16T02:03:11.615Z,99.99
2023-07-16T02:04:11.553Z,99.99
2023-07-16T02:05:11.542Z,99.99
2023-07-16T02:06:11.522Z,99.99
2023-07-16T02:07:11.507Z,99.99
2023-07-16T02:08:11.502Z,99.99
2023-07-16T02:09:11.489Z,99.99
2023-07-16T02:10:11.495Z,99.99
2023-07-16T02:11:11.458Z,99.99
2023-07-16T02:12:11.460Z,99.99
2023-07-16T02:13:11.456Z,99.99
2023-07-16T02:14:11.429Z,99.99
2023-07-16T02:15:11.423Z,99.99
2023-07-16T02:16:11.522Z,99.99
2023-07-16T02:17:11.393Z,99.99
2023-07-16T02:18:11.388Z,99.99
2023-07-16T02:19:11.373Z,99.99
2023-07-16T02:20:11.353Z,99.99
2023-07-16T02:21:11.344Z,99.99
2023-07-16T02:22:11.326Z,99.99
2023-07-16T02:23:11.357Z,99.99
2023-07-16T02:24:11.308Z,99.99
2023-07-16T02:25:11.283Z,99.99
2023-07-16T02:26:11.279Z,99.99
2023-07-16T02:27:11.257Z,99.99
2023-07-16T02:28:11.243Z,99.99
2023-07-16T02:29:11.239Z,99.99
2023-07-16T02:30:11.241Z,99.99
2023-07-16T02:31:11.270Z,99.99
2023-07-16T02:32:11.237Z,99.99
2023-07-16T02:33:11.188Z,99.99
2023-07-16T02:34:11.174Z,99.99
2023-07-16T02:35:11.150Z,99.99
2023-07-16T02:36:11.145Z,99.99
2023-07-16T02:37:11.137Z,99.99
2023-07-16T02:38:11.127Z,99.99
2023-07-16T02:39:11.112Z,99.99
2023-07-16T02:40:11.106Z,99.99
2023-07-16T02:41:11.095Z,99.99
2023-07-16T02:42:11.070Z,99.99
2023-07-16T02:43:11.059Z,99.99
2023-07-16T02:44:11.056Z,99.99
2023-07-16T02:45:11.030Z,99.99
2023-07-16T02:46:11.028Z,99.99
2023-07-16T02:47:11.067Z,99.99
2023-07-16T02:48:11.101Z,99.99
2023-07-16T02:49:10.978Z,99.99
2023-07-16T02:50:10.974Z,99.99
2023-07-16T02:51:10.970Z,99.99
2023-07-16T02:52:10.943Z,99.99
2023-07-16T02:53:10.942Z,99.99
2023-07-16T02:54:10.946Z,99.99
2023-07-16T02:55:10.909Z,99.99
2023-07-16T02:56:10.888Z,99.99
2023-07-16T02:57:10.883Z,99.99
2023-07-16T02:58:10.880Z,99.99
2023-07-16T02:59:10.862Z,99.99
2023-07-16T03:00:10.845Z,99.99
2023-07-16T03:01:10.847Z,99.99
2023-07-16T03:02:10.882Z,99.99
2023-07-16T03:03:11.030Z,99.99
2023-07-16T03:04:10.818Z,99.99
2023-07-16T03:05:10.780Z,99.99
2023-07-16T03:06:10.768Z,99.99
2023-07-16T03:07:10.755Z,99.99
2023-07-16T03:08:10.740Z,99.99
2023-07-16T03:09:10.733Z,99.99
2023-07-16T03:10:10.710Z,99.99
2023-07-16T03:11:10.696Z,99.99
2023-07-16T03:12:10.703Z,99.99
2023-07-16T03:13:10.685Z,99.99
2023-07-16T03:14:10.665Z,99.99
2023-07-16T03:15:10.643Z,99.99
2023-07-16T03:16:10.638Z,99.99
2023-07-16T03:17:10.769Z,99.99
2023-07-16T03:18:10.605Z,99.99
2023-07-16T03:19:10.592Z,99.99
2023-07-16T03:20:10.603Z,99.99
2023-07-16T03:21:10.572Z,99.99
2023-07-16T03:22:10.559Z,99.99
2023-07-16T03:23:10.675Z,99.99
2023-07-16T03:24:10.540Z,99.99
2023-07-16T03:25:10.508Z,99.99
2023-07-16T03:26:10.500Z,99.99
2023-07-16T03:27:18.185Z,99.99
2023-07-16T03:28:11.521Z,99.99
2023-07-16T03:29:10.478Z,99.99
2023-07-16T03:30:10.446Z,99.99
2023-07-16T03:31:10.460Z,99.99
2023-07-16T03:32:10.428Z,99.99
2023-07-16T03:33:10.454Z,99.99
2023-07-16T03:34:10.400Z,99.99
2023-07-16T03:35:10.375Z,99.99
2023-07-16T03:36:10.402Z,99.99
2023-07-16T03:37:10.368Z,99.99
2023-07-16T03:38:10.348Z,99.99
2023-07-16T03:39:10.330Z,99.99
2023-07-16T03:40:10.339Z,99.99
2023-07-16T03:41:10.302Z,99.99
2023-07-16T03:42:10.297Z,99.99
2023-07-16T03:43:10.288Z,99.99
2023-07-16T03:44:10.262Z,99.99
2023-07-16T03:45:10.261Z,99.99
2023-07-16T03:46:10.272Z,99.99
2023-07-16T03:47:10.298Z,99.99
2023-07-16T03:48:10.287Z,99.99
2023-07-16T03:49:10.433Z,99.99
2023-07-16T03:50:10.205Z,99.99
2023-07-16T03:51:10.178Z,99.99
2023-07-16T03:52:10.181Z,99.99
2023-07-16T03:53:10.146Z,99.99
2023-07-16T03:54:10.136Z,99.99
2023-07-16T03:55:10.120Z,99.99
2023-07-16T03:56:10.112Z,99.99
2023-07-16T03:57:10.101Z,99.99
2023-07-16T03:58:10.102Z,99.99
2023-07-16T03:59:10.069Z,99.99
2023-07-16T04:00:10.049Z,99.99
2023-07-16T04:01:10.052Z,99.99
2023-07-16T04:02:10.144Z,99.99
2023-07-16T04:03:10.109Z,99.99
2023-07-16T04:04:10.059Z,99.99
2023-07-16T04:05:09.989Z,99.99
2023-07-16T04:06:09.974Z,99.99
2023-07-16T04:07:09.974Z,99.99
2023-07-16T04:08:09.985Z,99.99
2023-07-16T04:09:09.947Z,99.99
2023-07-16T04:10:09.935Z,99.99
2023-07-16T04:11:09.918Z,99.99
2023-07-16T04:12:09.897Z,99.99
2023-07-16T04:13:09.887Z,99.99
2023-07-16T04:14:09.907Z,99.99
2023-07-16T04:15:09.870Z,99.99
2023-07-16T04:16:09.899Z,99.99
2023-07-16T04:17:09.838Z,99.99
2023-07-16T04:18:09.841Z,99.99
2023-07-16T04:19:09.822Z,99.99
2023-07-16T04:20:09.831Z,99.99
2023-07-16T04:21:09.789Z,99.99
2023-07-16T04:22:09.768Z,99.99
2023-07-16T04:23:09.795Z,99.99
2023-07-16T04:24:09.777Z,99.99
2023-07-16T04:25:09.735Z,99.99
2023-07-16T04:26:09.728Z,99.99
2023-07-16T04:27:09.711Z,99.99
2023-07-16T04:28:09.701Z,99.99
2023-07-16T04:29:09.685Z,99.99
2023-07-16T04:30:09.667Z,99.99
2023-07-16T04:31:09.720Z,99.99
2023-07-16T04:32:09.650Z,99.99
2023-07-16T04:33:09.665Z,99.99
2023-07-16T04:34:09.630Z,99.99
2023-07-16T04:35:09.631Z,99.99
2023-07-16T04:36:09.596Z,99.99
2023-07-16T04:37:09.579Z,99.99
2023-07-16T04:38:09.578Z,99.99
2023-07-16T04:39:09.555Z,99.99
2023-07-16T04:40:09.573Z,99.99
2023-07-16T04:41:09.541Z,99.99
2023-07-16T04:42:09.524Z,99.99
2023-07-16T04:43:09.501Z,99.99
2023-07-16T04:44:09.508Z,99.99
2023-07-16T04:45:09.488Z,99.99
2023-07-16T04:46:09.485Z,99.99
2023-07-16T04:47:09.454Z,99.99
2023-07-16T04:48:09.469Z,99.99
2023-07-16T04:49:09.447Z,99.99
2023-07-16T04:50:09.417Z,99.99
2023-07-16T04:51:09.419Z,99.99
2023-07-16T04:52:09.397Z,99.99
2023-07-16T04:53:09.418Z,99.99
2023-07-16T04:54:09.372Z,99.99
2023-07-16T04:55:09.353Z,99.99
2023-07-16T04:56:09.373Z,99.99
2023-07-16T04:57:09.333Z,99.99
2023-07-16T04:58:09.330Z,99.99
2023-07-16T04:59:09.319Z,99.99
2023-07-16T05:00:09.350Z,99.99
2023-07-16T05:01:09.281Z,99.99
2023-07-16T05:02:09.351Z,99.99
2023-07-16T05:03:09.281Z,99.99
2023-07-16T05:04:09.366Z,99.99
2023-07-16T05:05:09.242Z,99.99
2023-07-16T05:06:09.216Z,99.99
2023-07-16T05:07:09.202Z,99.99
2023-07-16T05:08:09.205Z,99.99
2023-07-16T05:09:09.177Z,99.99
2023-07-16T05:10:09.177Z,99.99
2023-07-16T05:11:09.155Z,99.99
2023-07-16T05:12:09.174Z,99.99
2023-07-16T05:13:09.131Z,99.99
2023-07-16T05:14:09.118Z,99.99
2023-07-16T05:15:09.104Z,99.99
2023-07-16T05:16:09.126Z,99.99
2023-07-16T05:17:09.132Z,99.99
2023-07-16T05:18:09.151Z,99.99
2023-07-16T05:19:09.046Z,99.99
2023-07-16T05:20:09.046Z,99.99
2023-07-16T05:21:09.046Z,99.99
2023-07-16T05:22:09.019Z,99.99
2023-07-16T05:23:09.070Z,99.99
2023-07-16T05:24:08.985Z,99.99
2023-07-16T05:25:08.976Z,99.99
2023-07-16T05:26:08.972Z,99.99
2023-07-16T05:27:08.958Z,99.99
2023-07-16T05:28:08.965Z,99.99
2023-07-16T05:29:08.957Z,99.99
2023-07-16T05:30:08.921Z,99.99
2023-07-16T05:31:08.917Z,99.99
2023-07-16T05:32:08.941Z,99.99
2023-07-16T05:33:08.878Z,99.99
2023-07-16T05:34:08.881Z,99.99
2023-07-16T05:35:08.869Z,99.99
2023-07-16T05:36:08.846Z,99.99
2023-07-16T05:37:08.832Z,99.99
2023-07-16T05:38:08.822Z,99.99
2023-07-16T05:39:08.805Z,99.99
2023-07-16T05:40:08.799Z,99.99
2023-07-16T05:41:08.780Z,99.99
2023-07-16T05:42:08.773Z,99.99
2023-07-16T05:43:08.764Z,99.99
2023-07-16T05:44:08.776Z,99.99
2023-07-16T05:45:08.756Z,99.99
2023-07-16T05:46:08.812Z,99.99
2023-07-16T05:47:08.711Z,99.99
2023-07-16T05:48:08.769Z,99.99
2023-07-16T05:49:08.693Z,99.99
2023-07-16T05:50:08.683Z,99.99
2023-07-16T05:51:08.666Z,99.99
2023-07-16T05:52:08.665Z,99.99
2023-07-16T05:53:08.654Z,99.99
2023-07-16T05:54:08.633Z,99.99
2023-07-16T05:55:08.630Z,99.99
2023-07-16T05:56:08.608Z,99.99
2023-07-16T05:57:08.602Z,99.99
2023-07-16T05:58:08.590Z,99.99
2023-07-16T05:59:08.579Z,99.99
2023-07-16T06:00:08.588Z,99.99
2023-07-16T06:01:08.589Z,99.99
2023-07-16T06:02:08.551Z,99.99
2023-07-16T06:03:08.581Z,99.99
2023-07-16T06:04:08.622Z,99.99
2023-07-16T06:05:08.505Z,99.99
2023-07-16T06:06:08.485Z,99.99
2023-07-16T06:07:08.478Z,99.99
2023-07-16T06:08:08.481Z,99.99
2023-07-16T06:09:08.463Z,99.99
2023-07-16T06:10:08.442Z,99.99
2023-07-16T06:11:08.426Z,99.99
2023-07-16T06:12:08.411Z,99.99
2023-07-16T06:13:08.408Z,99.99
2023-07-16T06:14:08.389Z,99.99
2023-07-16T06:15:08.379Z,99.99
2023-07-16T06:16:08.420Z,99.99
2023-07-16T06:17:08.346Z,99.99
2023-07-16T06:18:08.390Z,99.99
2023-07-16T06:19:08.325Z,99.99
2023-07-16T06:20:08.348Z,99.99
2023-07-16T06:21:08.304Z,99.99
2023-07-16T06:22:08.285Z,99.99
2023-07-16T06:23:08.318Z,99.99
2023-07-16T06:24:08.269Z,99.99
2023-07-16T06:25:08.272Z,99.99
2023-07-16T06:26:08.237Z,99.99
2023-07-16T06:27:08.234Z,99.99
2023-07-16T06:28:08.219Z,99.99
2023-07-16T06:29:08.214Z,99.99
2023-07-16T06:30:08.189Z,99.99
2023-07-16T06:31:08.243Z,99.99
2023-07-16T06:32:08.277Z,99.99
2023-07-16T06:33:08.203Z,99.99
2023-07-16T06:34:08.166Z,99.99
2023-07-16T06:35:08.133Z,99.99
2023-07-16T06:36:08.128Z,99.99
2023-07-16T06:37:08.123Z,99.99
2023-07-16T06:38:08.102Z,99.99
2023-07-16T06:39:08.082Z,99.99
2023-07-16T06:40:08.079Z,99.99
2023-07-16T06:41:08.060Z,99.99
2023-07-16T06:42:08.054Z,99.99
2023-07-16T06:43:08.045Z,99.61
2023-07-16T06:44:08.037Z,99.10
2023-07-16T06:45:08.020Z,97.99
2023-07-16T06:46:08.097Z,97.28
2023-07-16T06:47:08.014Z,96.83
2023-07-16T06:48:08.010Z,96.02
2023-07-16T06:49:07.964Z,95.92
2023-07-16T06:50:07.961Z,93.24
2023-07-16T06:51:07.950Z,94.43
2023-07-16T06:52:07.928Z,88.45
2023-07-16T06:53:07.924Z,86.69
2023-07-16T06:54:07.931Z,88.34
2023-07-16T06:55:07.905Z,89.50
2023-07-16T06:56:07.890Z,89.13
2023-07-16T06:57:07.886Z,89.11
2023-07-16T06:58:07.864Z,82.62
2023-07-16T06:59:07.846Z,78.66
2023-07-16T07:00:07.838Z,73.90
2023-07-16T07:01:07.864Z,73.63
2023-07-16T07:02:07.813Z,70.03
2023-07-16T07:03:07.870Z,68.03
2023-07-16T07:04:07.856Z,66.09
2023-07-16T07:05:07.781Z,69.29
2023-07-16T07:06:07.774Z,70.16
2023-07-16T07:07:07.773Z,71.76
2023-07-16T07:08:07.734Z,71.73
2023-07-16T07:09:07.746Z,69.66
2023-07-16T07:10:07.732Z,73.33
2023-07-16T07:11:07.698Z,70.79
2023-07-16T07:12:07.702Z,68.13
2023-07-16T07:13:07.680Z,63.81
2023-07-16T07:14:09.340Z,63.72
2023-07-16T07:15:07.671Z,63.00
2023-07-16T07:16:07.724Z,60.16
2023-07-16T07:17:07.645Z,58.98
2023-07-16T07:18:07.724Z,56.87
2023-07-16T07:19:07.605Z,55.93
2023-07-16T07:20:07.681Z,54.96
2023-07-16T07:21:07.587Z,54.67
2023-07-16T07:22:07.610Z,54.22
2023-07-16T07:23:07.643Z,54.84
2023-07-16T07:24:07.559Z,55.47
2023-07-16T07:25:07.552Z,52.69
2023-07-16T07:26:07.534Z,52.66
2023-07-16T07:27:07.505Z,50.85
2023-07-16T07:28:07.508Z,51.82
2023-07-16T07:29:07.475Z,52.09
2023-07-16T07:30:07.484Z,49.03
2023-07-16T07:31:07.510Z,49.27
2023-07-16T07:32:07.482Z,50.76
2023-07-16T07:33:07.472Z,50.95
2023-07-16T07:34:07.430Z,51.15
2023-07-16T07:35:07.401Z,50.46
2023-07-16T07:36:07.415Z,51.23
2023-07-16T07:37:07.385Z,49.67
2023-07-16T07:38:07.374Z,51.03
2023-07-16T07:39:07.361Z,51.99
2023-07-16T07:40:07.351Z,50.93
2023-07-16T07:41:07.335Z,52.61
2023-07-16T07:42:07.312Z,52.68
2023-07-16T07:43:07.358Z,51.28
2023-07-16T07:44:07.310Z,50.83
2023-07-16T07:45:07.268Z,50.26
2023-07-16T07:46:07.264Z,50.38
2023-07-16T07:47:07.287Z,50.66
2023-07-16T07:48:07.343Z,49.18
2023-07-16T07:49:07.228Z,50.76
2023-07-16T07:50:07.218Z,52.19
2023-07-16T07:51:07.205Z,52.24
2023-07-16T07:52:07.210Z,51.59
2023-07-16T07:53:07.222Z,53.92
2023-07-16T07:54:07.165Z,55.76
2023-07-16T07:55:07.155Z,58.86
2023-07-16T07:56:07.141Z,63.32
2023-07-16T07:57:07.153Z,64.01
2023-07-16T07:58:07.119Z,67.63
2023-07-16T07:59:07.181Z,68.99
2023-07-16T08:00:07.100Z,70.62
2023-07-16T08:01:07.081Z,69.19
2023-07-16T08:02:07.074Z,71.12
2023-07-16T08:03:07.273Z,71.09
2023-07-16T08:04:07.146Z,66.55
2023-07-16T08:05:07.184Z,70.86
2023-07-16T08:06:07.047Z,72.39
2023-07-16T08:07:07.006Z,74.43
2023-07-16T08:08:07.022Z,72.63
2023-07-16T08:09:06.984Z,73.80
2023-07-16T08:10:06.977Z,75.71
2023-07-16T08:11:06.948Z,75.24
2023-07-16T08:12:06.937Z,74.10
2023-07-16T08:13:06.935Z,68.46
2023-07-16T08:14:06.915Z,65.47
2023-07-16T08:15:06.897Z,66.60
2023-07-16T08:16:06.891Z,66.50
2023-07-16T08:17:06.908Z,67.72
2023-07-16T08:18:06.912Z,67.72
2023-07-16T08:19:06.871Z,70.89
2023-07-16T08:20:06.861Z,68.99
2023-07-16T08:21:06.842Z,69.49
2023-07-16T08:22:06.823Z,68.82
2023-07-16T08:23:07.126Z,67.26
2023-07-16T08:24:06.819Z,70.66
2023-07-16T08:25:06.791Z,68.69
2023-07-16T08:26:06.769Z,69.29
2023-07-16T08:27:06.760Z,70.43
2023-07-16T08:28:06.748Z,69.66
2023-07-16T08:29:06.737Z,69.26
2023-07-16T08:30:06.718Z,71.76
2023-07-16T08:31:06.741Z,70.09
2023-07-16T08:32:06.706Z,70.03
2023-07-16T08:33:06.731Z,71.12
2023-07-16T08:34:06.667Z,73.97
2023-07-16T08:35:06.667Z,75.74
2023-07-16T08:36:06.655Z,76.28
2023-07-16T08:37:06.670Z,73.16
2023-07-16T08:38:06.633Z,75.17
2023-07-16T08:39:06.607Z,73.60
2023-07-16T08:40:06.625Z,75.10
2023-07-16T08:41:06.593Z,76.21
2023-07-16T08:42:06.582Z,76.11
2023-07-16T08:43:06.567Z,74.27
2023-07-16T08:44:06.563Z,74.07
2023-07-16T08:45:06.546Z,77.37
2023-07-16T08:46:06.649Z,75.27
2023-07-16T08:47:06.627Z,70.96
2023-07-16T08:48:06.540Z,73.57
2023-07-16T08:49:06.499Z,73.86
2023-07-16T08:50:06.476Z,74.27
2023-07-16T08:51:06.458Z,75.17
2023-07-16T08:52:06.453Z,74.47
2023-07-16T08:53:06.435Z,75.21
2023-07-16T08:54:06.428Z,76.91
2023-07-16T08:55:06.412Z,73.74
2023-07-16T08:56:06.447Z,72.43
2023-07-16T08:57:06.406Z,73.33
2023-07-16T08:58:06.376Z,74.44
2023-07-16T08:59:06.354Z,78.25
2023-07-16T09:00:06.362Z,74.14
2023-07-16T09:01:06.360Z,74.64
2023-07-16T09:02:06.373Z,74.24
2023-07-16T09:03:06.493Z,71.13
2023-07-16T09:04:06.316Z,73.13
2023-07-16T09:05:06.345Z,71.43
2023-07-16T09:06:06.333Z,73.37
2023-07-16T09:07:06.273Z,71.80
2023-07-16T09:08:06.253Z,75.21
2023-07-16T09:09:06.283Z,74.41
2023-07-16T09:10:06.316Z,73.54
2023-07-16T09:11:06.235Z,75.15
2023-07-16T09:12:06.251Z,78.53
2023-07-16T09:13:06.237Z,78.46
2023-07-16T09:14:06.223Z,76.05
2023-07-16T09:15:06.275Z,78.56
2023-07-16T09:16:06.278Z,77.50
2023-07-16T09:17:06.171Z,77.20
2023-07-16T09:18:06.589Z,76.89
2023-07-16T09:19:06.119Z,78.56
2023-07-16T09:20:06.118Z,77.86
2023-07-16T09:21:06.102Z,77.56
2023-07-16T09:22:06.090Z,76.42
2023-07-16T09:23:06.261Z,74.81
2023-07-16T09:24:06.072Z,77.83
2023-07-16T09:25:06.045Z,77.89
2023-07-16T09:26:06.040Z,75.08
2023-07-16T09:27:06.094Z,76.54
2023-07-16T09:28:06.050Z,78.15
2023-07-16T09:29:06.015Z,79.82
2023-07-16T09:30:06.003Z,77.81
2023-07-16T09:31:05.966Z,73.70
2023-07-16T09:32:06.103Z,72.70
2023-07-16T09:33:06.001Z,71.20
2023-07-16T09:34:05.959Z,70.89
2023-07-16T09:35:05.921Z,72.16
2023-07-16T09:36:05.918Z,73.77
2023-07-16T09:37:05.912Z,72.66
2023-07-16T09:38:05.893Z,72.06
2023-07-16T09:39:05.891Z,73.16
2023-07-16T09:40:05.864Z,73.86
2023-07-16T09:41:05.852Z,72.66
2023-07-16T09:42:05.850Z,74.93
2023-07-16T09:43:05.836Z,77.44
2023-07-16T09:44:05.848Z,74.33
2023-07-16T09:45:05.792Z,78.14
2023-07-16T09:46:05.826Z,76.64
2023-07-16T09:47:05.767Z,73.73
2023-07-16T09:48:05.781Z,71.16
2023-07-16T09:49:05.751Z,70.19
2023-07-16T09:50:05.774Z,71.30
2023-07-16T09:51:05.727Z,72.60
2023-07-16T09:52:05.716Z,73.00
2023-07-16T09:53:05.728Z,72.60
2023-07-16T09:54:05.723Z,71.50
2023-07-16T09:55:05.674Z,72.90
2023-07-16T09:56:05.670Z,76.67
2023-07-16T09:57:05.662Z,75.10
2023-07-16T09:58:05.638Z,74.71
2023-07-16T09:59:05.637Z,72.80
2023-07-16T10:00:05.659Z,73.30
2023-07-16T10:01:05.686Z,73.13
2023-07-16T10:02:05.633Z,73.54
2023-07-16T10:03:05.617Z,74.24
2023-07-16T10:04:05.613Z,74.94
2023-07-16T10:05:05.571Z,74.84
2023-07-16T10:06:05.540Z,74.90
2023-07-16T10:07:05.550Z,76.21
2023-07-16T10:08:05.542Z,77.11
2023-07-16T10:09:05.516Z,77.21
2023-07-16T10:10:05.868Z,78.22
2023-07-16T10:11:05.481Z,77.81
2023-07-16T10:12:05.460Z,74.20
2023-07-16T10:13:05.456Z,74.01
2023-07-16T10:14:05.434Z,77.21
2023-07-16T10:15:05.438Z,74.90
2023-07-16T10:16:05.480Z,74.40
2023-07-16T10:17:05.417Z,74.84
2023-07-16T10:18:05.464Z,74.71
2023-07-16T10:19:05.389Z,73.70
2023-07-16T10:20:05.369Z,74.30
2023-07-16T10:21:05.354Z,75.60
2023-07-16T10:22:05.348Z,75.60
2023-07-16T10:23:05.343Z,73.77
2023-07-16T10:24:05.330Z,71.26
2023-07-16T10:25:05.314Z,72.77
2023-07-16T10:26:05.336Z,71.36
2023-07-16T10:27:05.287Z,72.06
2023-07-16T10:28:05.269Z,73.36
2023-07-16T10:29:05.252Z,71.39
2023-07-16T10:30:05.241Z,74.27
2023-07-16T10:31:05.287Z,75.17
2023-07-16T10:32:05.242Z,75.74
2023-07-16T10:33:05.228Z,74.13
2023-07-16T10:34:05.198Z,74.84
2023-07-16T10:35:05.190Z,75.30
2023-07-16T10:36:05.171Z,72.50
2023-07-16T10:37:05.164Z,74.10
2023-07-16T10:38:05.149Z,73.39
2023-07-16T10:39:05.127Z,72.89
2023-07-16T10:40:05.245Z,75.46
2023-07-16T10:41:05.106Z,75.76
2023-07-16T10:42:05.092Z,73.96
2023-07-16T10:43:05.085Z,72.16
2023-07-16T10:44:05.096Z,72.66
2023-07-16T10:45:05.074Z,71.19
2023-07-16T10:46:05.111Z,69.89
2023-07-16T10:47:05.049Z,70.59
2023-07-16T10:48:05.092Z,72.00
2023-07-16T10:49:05.039Z,72.30
2023-07-16T10:50:05.003Z,74.10
2023-07-16T10:51:04.983Z,71.80
2023-07-16T10:52:04.977Z,71.09
2023-07-16T10:53:04.969Z,73.70
2023-07-16T10:54:04.972Z,70.19
2023-07-16T10:55:04.941Z,71.09
2023-07-16T10:56:04.933Z,71.80
2023-07-16T10:57:04.914Z,73.96
2023-07-16T10:58:04.904Z,75.06
2023-07-16T10:59:04.897Z,73.96
2023-07-16T11:00:04.904Z,72.76
2023-07-16T11:01:04.887Z,72.26
2023-07-16T11:02:04.960Z,70.46
2023-07-16T11:03:04.897Z,70.26
2023-07-16T11:04:04.865Z,72.46
2023-07-16T11:05:04.827Z,70.16
2023-07-16T11:06:04.808Z,71.86
2023-07-16T11:07:04.797Z,72.66
2023-07-16T11:08:04.786Z,72.76
2023-07-16T11:09:04.759Z,72.06
2023-07-16T11:10:04.751Z,70.86
2023-07-16T11:11:04.738Z,70.36
2023-07-16T11:12:04.741Z,69.06
2023-07-16T11:13:04.715Z,70.06
2023-07-16T11:14:04.708Z,70.26
2023-07-16T11:15:04.690Z,71.83
2023-07-16T11:16:04.704Z,70.53
2023-07-16T11:17:04.664Z,70.23
2023-07-16T11:18:04.683Z,71.03
2023-07-16T11:19:04.644Z,70.43
2023-07-16T11:20:04.666Z,73.96
2023-07-16T11:21:04.620Z,73.16
2023-07-16T11:22:04.610Z,71.26
2023-07-16T11:23:04.689Z,72.86
2023-07-16T11:24:04.597Z,72.26
2023-07-16T11:25:04.576Z,73.36
2023-07-16T11:26:04.572Z,70.96
2023-07-16T11:27:04.564Z,71.36
2023-07-16T11:28:04.525Z,73.86
2023-07-16T11:29:04.514Z,72.03
2023-07-16T11:30:04.516Z,71.86
2023-07-16T11:31:04.522Z,72.76
2023-07-16T11:32:04.493Z,73.26
2023-07-16T11:33:04.557Z,73.33
2023-07-16T11:34:04.456Z,74.26
2023-07-16T11:35:04.446Z,72.23
2023-07-16T11:36:04.474Z,72.63
2023-07-16T11:37:04.428Z,72.72
2023-07-16T11:38:04.420Z,71.53
2023-07-16T11:39:04.393Z,71.23
2023-07-16T11:40:04.379Z,70.06
2023-07-16T11:41:04.368Z,70.86
2023-07-16T11:42:04.371Z,72.36
2023-07-16T11:43:04.349Z,71.26
2023-07-16T11:44:04.352Z,71.56
2023-07-16T11:45:04.510Z,72.56
2023-07-16T11:46:04.325Z,72.96
2023-07-16T11:47:04.330Z,70.76
2023-07-16T11:48:04.350Z,71.46
2023-07-16T11:49:04.270Z,72.96
2023-07-16T11:50:04.275Z,73.16
2023-07-16T11:51:04.266Z,71.66
2023-07-16T11:52:04.257Z,73.63
2023-07-16T11:53:04.228Z,73.03
2023-07-16T11:54:04.211Z,74.03
2023-07-16T11:55:04.224Z,73.93
2023-07-16T11:56:04.191Z,73.72
2023-07-16T11:57:04.184Z,74.13
2023-07-16T11:58:04.156Z,74.33
2023-07-16T11:59:04.153Z,73.72
2023-07-16T12:00:04.136Z,72.63
2023-07-16T12:01:04.222Z,72.13
2023-07-16T12:02:04.142Z,72.92
2023-07-16T12:03:04.169Z,71.23
2023-07-16T12:04:04.152Z,72.76
2023-07-16T12:05:04.091Z,74.06
2023-07-16T12:06:04.068Z,72.96
2023-07-16T12:07:04.071Z,73.16
2023-07-16T12:08:04.071Z,74.93
2023-07-16T12:09:04.033Z,75.52
2023-07-16T12:10:04.011Z,73.03
2023-07-16T12:11:04.001Z,70.73
2023-07-16T12:12:03.996Z,72.92
2023-07-16T12:13:03.972Z,72.03
2023-07-16T12:14:03.972Z,72.03
2023-07-16T12:15:03.958Z,73.83
2023-07-16T12:16:03.960Z,72.83
2023-07-16T12:17:03.980Z,72.23
2023-07-16T12:18:03.993Z,73.19
2023-07-16T12:19:03.916Z,72.89
2023-07-16T12:20:03.885Z,72.59
2023-07-16T12:21:03.902Z,74.79
2023-07-16T12:22:03.861Z,72.49
2023-07-16T12:23:04.097Z,69.79
2023-07-16T12:24:03.875Z,71.29
2023-07-16T12:25:03.844Z,73.29
2023-07-16T12:26:03.824Z,74.09
2023-07-16T12:27:03.826Z,73.29
2023-07-16T12:28:03.854Z,70.69
2023-07-16T12:29:03.774Z,72.49
2023-07-16T12:30:03.772Z,72.99
2023-07-16T12:31:03.828Z,71.39
2023-07-16T12:32:03.754Z,72.09
2023-07-16T12:33:03.773Z,71.89
2023-07-16T12:34:03.749Z,69.89
2023-07-16T12:35:03.708Z,71.19
2023-07-16T12:36:03.700Z,70.56
2023-07-16T12:37:03.693Z,70.06
2023-07-16T12:38:03.705Z,70.12
2023-07-16T12:39:03.674Z,70.23
2023-07-16T12:40:03.674Z,69.93
2023-07-16T12:41:03.633Z,72.69
2023-07-16T12:42:03.627Z,71.39
2023-07-16T12:43:03.612Z,70.36
2023-07-16T12:44:03.603Z,70.16
2023-07-16T12:45:03.621Z,70.76
2023-07-16T12:46:03.580Z,67.26
2023-07-16T12:47:03.643Z,65.56
2023-07-16T12:48:03.582Z,65.37
2023-07-16T12:49:03.540Z,68.26
2023-07-16T12:50:03.516Z,68.16
2023-07-16T12:51:03.505Z,69.16
2023-07-16T12:52:03.491Z,68.26